Time;durP1;ratioP1;P1;durP2;ratioP2;P2;SDS_P1;SDS_P2;PMS_P1;PMS_P2;Temp;Humidity;BMP_temperature;BMP_pressure;BME280_temperature;BME280_humidity;BME280_pressure;Samples;Min_cycle;Max_cycle;Signal;HPM_P1;HPM_P2
2021/07/06 00:04:13;;;;;;;0.10;0.10;;;;;;;15.37;94.02;100936.66;10418476;28;20029;-63
2021/07/06 00:09:14;;;;;;;0.10;0.10;;;;;;;15.39;93.91;100929.25;10423854;28;20025;-62
2021/07/06 00:14:15;;;;;;;0.10;0.10;;;;;;;15.42;94.34;100928.88;10423090;28;20676;-64
2021/07/06 00:19:15;;;;;;;0.10;0.10;;;;;;;15.42;94.14;100925.31;10442355;28;20075;-63
2021/07/06 00:24:15;;;;;;;0.00;0.00;;;;;;;15.42;94.61;100917.28;10436175;28;20026;-63
2021/07/06 00:29:16;;;;;;;0.10;0.10;;;;;;;15.44;94.22;100915.25;10440766;28;20083;-63
2021/07/06 00:34:16;;;;;;;0.10;0.10;;;;;;;15.46;94.32;100918.56;10413305;28;20439;-64
2021/07/06 00:39:16;;;;;;;0.10;0.10;;;;;;;15.51;94.10;100916.16;10411531;28;20025;-63
2021/07/06 00:44:19;;;;;;;0.10;0.10;;;;;;;15.57;93.74;100915.41;10413542;28;20067;-64
2021/07/06 00:49:19;;;;;;;0.10;0.10;;;;;;;15.57;93.79;100907.34;10454627;28;20194;-64
2021/07/06 00:54:20;;;;;;;0.10;0.10;;;;;;;15.57;93.96;100891.25;10443241;28;20441;-63
2021/07/06 00:59:21;;;;;;;0.10;0.10;;;;;;;15.55;93.96;100885.22;10449685;28;20510;-63
2021/07/06 01:04:21;;;;;;;0.10;0.10;;;;;;;15.56;94.13;100886.88;10426887;28;20264;-64
2021/07/06 01:09:21;;;;;;;0.10;0.10;;;;;;;15.59;94.33;100883.81;10444111;28;20110;-65
2021/07/06 01:14:22;;;;;;;0.10;0.10;;;;;;;15.61;94.25;100885.28;10411937;28;20039;-65
2021/07/06 01:19:26;;;;;;;0.10;0.10;;;;;;;15.66;93.86;100887.41;10394631;28;20013;-62
2021/07/06 01:24:26;;;;;;;0.10;0.10;;;;;;;15.70;94.03;100869.91;10418431;28;20264;-65
2021/07/06 01:29:27;;;;;;;0.13;0.13;;;;;;;15.72;93.99;100873.25;10441922;28;20025;-65
2021/07/06 01:34:27;;;;;;;0.10;0.10;;;;;;;15.77;93.71;100867.31;10423528;28;20021;-64
2021/07/06 01:39:29;;;;;;;0.10;0.10;;;;;;;15.78;93.71;100847.47;10437773;28;20494;-65
2021/07/06 01:44:29;;;;;;;0.10;0.10;;;;;;;15.83;93.67;100850.44;10438486;28;20039;-65
2021/07/06 01:49:32;;;;;;;0.10;0.10;;;;;;;15.84;93.50;100847.53;10426359;28;20018;-64
2021/07/06 01:54:33;;;;;;;0.10;0.10;;;;;;;15.84;93.34;100841.34;10435536;28;20037;-64
2021/07/06 01:59:33;;;;;;;0.10;0.10;;;;;;;15.84;93.43;100836.78;10426404;28;20125;-64
2021/07/06 02:04:33;;;;;;;0.10;0.10;;;;;;;15.84;93.42;100834.09;10413566;28;20033;-64
2021/07/06 02:09:34;;;;;;;0.10;0.10;;;;;;;15.87;93.02;100827.50;10434836;28;20368;-64
2021/07/06 02:14:34;;;;;;;0.00;0.00;;;;;;;15.92;93.10;100819.72;10434111;28;20468;-63
2021/07/06 02:19:34;;;;;;;0.10;0.10;;;;;;;16.06;92.05;100817.97;10427174;28;20468;-64
2021/07/06 02:24:34;;;;;;;0.10;0.10;;;;;;;16.23;91.34;100816.66;10423073;28;20025;-65
2021/07/06 02:29:35;;;;;;;0.10;0.10;;;;;;;16.35;90.36;100814.25;10425094;28;20021;-64
2021/07/06 02:34:36;;;;;;;0.10;0.10;;;;;;;16.45;89.66;100819.25;10426343;28;20478;-65
2021/07/06 02:39:36;;;;;;;0.00;0.00;;;;;;;16.53;89.55;100813.72;10420316;28;20384;-65
2021/07/06 02:44:36;;;;;;;0.10;0.10;;;;;;;16.55;90.18;100808.97;10433822;28;20013;-64
2021/07/06 02:49:37;;;;;;;0.10;0.10;;;;;;;16.54;89.94;100815.38;10439041;28;20036;-63
2021/07/06 02:54:37;;;;;;;0.13;0.13;;;;;;;16.52;90.11;100809.34;10412702;28;20302;-63
2021/07/06 02:59:37;;;;;;;0.10;0.10;;;;;;;16.47;90.42;100799.22;10413503;28;20116;-64
2021/07/06 03:04:37;;;;;;;0.10;0.10;;;;;;;16.46;90.56;100807.47;10428683;28;20023;-63
2021/07/06 03:09:38;;;;;;;0.10;0.10;;;;;;;16.45;90.22;100801.25;10435814;28;20496;-64
2021/07/06 03:14:38;;;;;;;0.10;0.10;;;;;;;16.46;90.20;100796.69;10428008;28;20043;-64
2021/07/06 03:19:38;;;;;;;0.10;0.10;;;;;;;16.46;90.36;100776.06;10427737;28;20045;-65
2021/07/06 03:24:39;;;;;;;0.10;0.10;;;;;;;16.42;90.62;100749.75;10436958;28;20023;-64
2021/07/06 03:29:39;;;;;;;0.10;0.10;;;;;;;16.35;90.85;100738.13;10422219;28;20072;-65
2021/07/06 03:34:40;;;;;;;0.10;0.10;;;;;;;16.33;91.28;100738.34;10430711;28;20037;-65
2021/07/06 03:39:41;;;;;;;0.10;0.10;;;;;;;16.32;91.52;100739.38;10445169;28;20472;-65
2021/07/06 03:44:42;;;;;;;0.10;0.10;;;;;;;16.34;91.17;100747.22;10436723;28;20141;-65
2021/07/06 03:49:42;;;;;;;0.10;0.10;;;;;;;16.40;90.67;100749.13;10427214;28;20128;-64
2021/07/06 03:54:43;;;;;;;0.10;0.10;;;;;;;16.50;89.84;100752.28;10441399;28;20028;-65
2021/07/06 03:59:43;;;;;;;0.10;0.10;;;;;;;16.64;89.27;100770.13;10438538;28;20029;-65
2021/07/06 04:04:43;;;;;;;0.10;0.10;;;;;;;16.80;88.44;100755.53;10436113;28;20048;-65
2021/07/06 04:09:44;;;;;;;0.10;0.10;;;;;;;17.00;87.64;100755.59;10425459;28;20080;-64
2021/07/06 04:14:44;;;;;;;0.08;0.08;;;;;;;17.26;86.61;100741.34;10418800;28;20056;-64
2021/07/06 04:19:45;;;;;;;0.10;0.10;;;;;;;17.84;84.05;100747.00;10442370;28;20482;-65
2021/07/06 04:24:45;;;;;;;0.10;0.10;;;;;;;17.99;84.11;100743.25;10439013;28;20112;-64
2021/07/06 04:29:47;;;;;;;0.10;0.10;;;;;;;18.07;84.13;100716.88;10437300;28;20043;-64
2021/07/06 04:34:51;;;;;;;0.10;0.10;;;;;;;17.92;83.83;100710.94;10418335;28;20034;-64
2021/07/06 04:39:51;;;;;;;0.08;0.08;;;;;;;17.95;83.98;100698.88;10385527;28;20116;-65
2021/07/06 04:44:52;;;;;;;0.10;0.10;;;;;;;18.12;83.02;100708.16;10415208;28;20034;-65
2021/07/06 04:49:52;;;;;;;0.00;0.00;;;;;;;18.64;81.65;100703.59;10424700;28;20298;-65
2021/07/06 04:54:52;;;;;;;0.10;0.10;;;;;;;18.37;81.64;100721.78;10418514;28;20029;-65
2021/07/06 04:59:52;;;;;;;0.10;0.10;;;;;;;18.32;82.53;100718.88;10429489;28;20026;-65
2021/07/06 05:04:53;;;;;;;0.10;0.10;;;;;;;19.05;81.12;100693.44;10443476;28;20500;-65
2021/07/06 05:09:53;;;;;;;0.00;0.00;;;;;;;20.38;74.99;100679.50;10440227;28;20021;-64
2021/07/06 05:14:54;;;;;;;0.10;0.10;;;;;;;20.70;73.89;100693.66;10437646;28;20022;-64
2021/07/06 05:19:54;;;;;;;0.10;0.10;;;;;;;21.45;71.37;100692.38;10436626;28;20267;-65
2021/07/06 05:24:55;;;;;;;0.10;0.10;;;;;;;22.12;70.25;100714.50;10432058;28;20033;-65
2021/07/06 05:29:55;;;;;;;0.10;0.10;;;;;;;21.18;73.54;100733.41;10430492;28;20021;-64
2021/07/06 05:34:56;;;;;;;0.10;0.10;;;;;;;20.28;75.91;100728.72;10423699;28;20033;-65
2021/07/06 05:39:56;;;;;;;0.10;0.10;;;;;;;19.79;78.10;100745.88;10418661;28;20029;-65
2021/07/06 05:44:56;;;;;;;0.00;0.00;;;;;;;19.43;79.69;100741.97;10417057;28;20037;-64
2021/07/06 05:49:57;;;;;;;0.10;0.10;;;;;;;19.14;80.93;100736.16;10411079;28;20116;-64
2021/07/06 05:54:58;;;;;;;0.10;0.10;;;;;;;19.01;81.41;100714.66;10432450;28;20060;-65
2021/07/06 06:00:05;;;;;;;0.10;0.10;;;;;;;18.97;81.10;100689.16;10425250;22;20647;-64
2021/07/06 06:05:07;;;;;;;0.10;0.10;;;;;;;19.48;80.23;100671.91;10414114;28;20512;-63
2021/07/06 06:10:10;;;;;;;0.10;0.10;;;;;;;20.41;75.91;100695.28;10421991;28;20037;-64
2021/07/06 06:15:10;;;;;;;0.10;0.10;;;;;;;20.40;76.58;100692.81;10452414;28;20031;-63
2021/07/06 06:20:11;;;;;;;0.10;0.10;;;;;;;20.26;77.24;100670.50;10449592;28;20025;-63
2021/07/06 06:25:12;;;;;;;0.10;0.10;;;;;;;20.08;77.12;100671.34;10412945;28;20119;-64
2021/07/06 06:30:13;;;;;;;0.10;0.10;;;;;;;19.92;77.62;100664.63;10416981;28;20017;-64
2021/07/06 06:35:14;;;;;;;0.10;0.10;;;;;;;20.15;77.43;100671.25;10452824;28;20483;-62
2021/07/06 06:40:15;;;;;;;0.10;0.10;;;;;;;20.22;76.70;100672.84;10453711;28;20028;-64
2021/07/06 06:45:15;;;;;;;0.00;0.00;;;;;;;20.58;76.76;100668.44;10453690;28;20036;-63
2021/07/06 06:50:15;;;;;;;0.00;0.00;;;;;;;21.29;72.51;100679.47;10433220;28;20025;-64
2021/07/06 06:55:16;;;;;;;0.10;0.10;;;;;;;21.21;73.25;100678.75;10408411;28;20045;-64
2021/07/06 07:00:16;;;;;;;0.10;0.10;;;;;;;21.46;73.59;100684.00;10408989;28;20252;-64
2021/07/06 07:05:17;;;;;;;0.10;0.10;;;;;;;22.28;71.73;100685.84;10411179;28;20048;-63
2021/07/06 07:10:19;;;;;;;0.10;0.10;;;;;;;24.03;65.08;100689.63;10411733;28;20476;-64
2021/07/06 07:15:20;;;;;;;0.10;0.10;;;;;;;24.60;62.47;100681.13;10413506;28;20357;-64
2021/07/06 07:20:20;;;;;;;0.10;0.10;;;;;;;25.45;60.14;100674.03;10414027;28;20018;-62
2021/07/06 07:25:21;;;;;;;0.10;0.10;;;;;;;25.51;58.02;100664.78;10413426;28;20079;-61
2021/07/06 07:30:21;;;;;;;0.10;0.10;;;;;;;26.83;56.37;100671.09;10417430;28;20036;-62
2021/07/06 07:35:22;;;;;;;0.10;0.10;;;;;;;27.68;55.72;100673.28;10430858;28;20135;-63
2021/07/06 07:40:22;;;;;;;0.10;0.10;;;;;;;27.20;54.12;100665.44;10412459;28;20435;-64
2021/07/06 07:45:22;;;;;;;0.10;0.10;;;;;;;26.14;54.61;100669.50;10412709;28;20124;-64
2021/07/06 07:50:23;;;;;;;0.00;0.00;;;;;;;26.06;56.62;100662.66;10422432;28;20028;-64
2021/07/06 07:55:23;;;;;;;0.10;0.10;;;;;;;26.33;55.16;100648.84;10430346;28;20057;-64
2021/07/06 08:00:24;;;;;;;0.10;0.10;;;;;;;26.67;56.10;100633.91;10411621;28;20076;-64
2021/07/06 08:05:24;;;;;;;0.10;0.10;;;;;;;26.41;54.60;100631.94;10411167;28;20646;-65
2021/07/06 08:10:25;;;;;;;0.10;0.10;;;;;;;25.46;56.55;100620.31;10411691;28;20033;-65
2021/07/06 08:15:25;;;;;;;0.10;0.10;;;;;;;24.87;58.24;100602.13;10417911;28;20025;-65
2021/07/06 08:20:25;;;;;;;0.10;0.10;;;;;;;25.22;61.14;100608.94;10417659;28;20307;-65
2021/07/06 08:25:26;;;;;;;0.00;0.00;;;;;;;24.62;58.15;100624.50;10417274;28;20052;-65
2021/07/06 08:30:26;;;;;;;0.10;0.10;;;;;;;25.65;59.34;100639.75;10417411;28;20027;-65
2021/07/06 08:35:26;;;;;;;0.00;0.00;;;;;;;24.92;58.58;100653.91;10420688;28;20024;-65
2021/07/06 08:40:27;;;;;;;0.10;0.10;;;;;;;24.23;63.52;100665.44;10457901;28;20317;-65
2021/07/06 08:45:28;;;;;;;0.10;0.10;;;;;;;22.96;68.24;100661.63;10437272;28;20419;-65
2021/07/06 08:50:28;;;;;;;0.10;0.10;;;;;;;22.13;72.42;100672.72;10435836;28;20103;-65
2021/07/06 08:55:30;;;;;;;0.00;0.00;;;;;;;21.72;74.66;100675.63;10427228;28;20045;-66
2021/07/06 09:00:30;;;;;;;0.00;0.00;;;;;;;21.81;77.00;100674.22;10413824;28;20029;-65
2021/07/06 09:05:32;;;;;;;0.10;0.10;;;;;;;22.27;75.47;100683.38;10421266;28;20052;-66
2021/07/06 09:10:38;;;;;;;0.10;0.10;;;;;;;22.92;74.93;100677.56;10416166;28;20289;-65
2021/07/06 09:15:38;;;;;;;0.10;0.10;;;;;;;23.42;71.76;100678.69;10426835;28;20204;-66
2021/07/06 09:20:40;;;;;;;0.00;0.00;;;;;;;23.81;69.73;100674.13;10434251;28;20009;-66
2021/07/06 09:25:41;;;;;;;0.00;0.00;;;;;;;23.92;68.79;100666.94;10431980;28;20044;-66
2021/07/06 09:30:44;;;;;;;0.10;0.10;;;;;;;24.02;70.58;100663.50;10431607;28;20480;-66
2021/07/06 09:35:44;;;;;;;0.10;0.10;;;;;;;24.32;66.91;100639.41;10411250;28;20033;-66
2021/07/06 09:40:45;;;;;;;0.10;0.10;;;;;;;24.49;66.20;100633.06;10411246;28;20025;-66
2021/07/06 09:46:08;;;;;;;0.08;0.08;;;;;;;24.91;66.90;100616.88;10412823;28;20021;-64
2021/07/06 09:51:22;;;;;;;0.00;0.00;;;;;;;25.47;63.93;100616.47;10413369;28;20029;-66
2021/07/06 09:56:26;;;;;;;0.10;0.10;;;;;;;25.55;61.11;100626.91;10413080;28;20479;-65
2021/07/06 10:01:28;;;;;;;0.00;0.00;;;;;;;25.51;60.72;100620.31;10412723;28;20036;-64
2021/07/06 10:06:29;;;;;;;0.00;0.00;;;;;;;25.59;62.97;100619.81;10412579;28;20075;-66
2021/07/06 10:11:30;;;;;;;0.00;0.00;;;;;;;25.52;62.65;100608.34;10412256;28;20026;-65
2021/07/06 10:16:30;;;;;;;0.10;0.10;;;;;;;25.10;63.04;100602.84;10412169;28;20029;-65
2021/07/06 10:21:31;;;;;;;0.10;0.10;;;;;;;24.70;62.97;100618.59;10412031;28;20381;-66
2021/07/06 10:26:34;;;;;;;0.10;0.10;;;;;;;24.33;64.57;100619.28;10411928;28;20332;-65
2021/07/06 10:31:41;;;;;;;0.10;0.10;;;;;;;24.13;63.92;100638.09;10407898;28;20057;-64
2021/07/06 10:36:45;;;;;;;0.10;0.10;;;;;;;24.12;65.90;100639.16;10410771;28;20029;-65
2021/07/06 10:41:53;;;;;;;0.00;0.00;;;;;;;24.02;64.52;100647.19;10411313;28;20052;-63
2021/07/06 10:46:54;;;;;;;0.10;0.10;;;;;;;23.76;64.24;100638.69;10411831;28;20106;-65
2021/07/06 10:51:55;;;;;;;0.00;0.00;;;;;;;23.56;67.53;100622.91;10411926;28;20107;-64
2021/07/06 10:56:57;;;;;;;0.00;0.00;;;;;;;23.19;67.54;100609.03;10411847;28;20040;-63
2021/07/06 11:02:03;;;;;;;0.10;0.10;;;;;;;22.96;69.00;100591.84;10411193;28;20021;-64
2021/07/06 11:07:05;;;;;;;0.10;0.10;;;;;;;22.80;69.84;100579.84;10412246;28;20264;-64
2021/07/06 11:12:19;;;;;;;0.10;0.10;;;;;;;22.70;68.64;100576.16;10410506;28;20048;-64
2021/07/06 11:17:32;;;;;;;0.10;0.10;;;;;;;22.54;69.11;100548.75;10410641;28;20017;-63
2021/07/06 11:22:46;;;;;;;0.10;0.10;;;;;;;22.32;69.06;100526.09;10410217;28;20060;-64
2021/07/06 11:28:00;;;;;;;0.10;0.10;;;;;;;22.25;69.24;100507.28;10410602;28;20057;-63
2021/07/06 11:33:06;;;;;;;0.10;0.10;;;;;;;22.17;68.36;100507.66;10409895;28;20104;-63
2021/07/06 11:38:15;;;;;;;0.10;0.10;;;;;;;22.14;68.45;100535.25;10410411;28;20417;-64
2021/07/06 11:43:17;;;;;;;0.10;0.10;;;;;;;22.14;67.92;100514.38;10409746;28;20060;-63
2021/07/06 11:48:20;;;;;;;0.00;0.00;;;;;;;22.13;69.40;100539.81;10416670;28;20089;-62
2021/07/06 11:53:24;;;;;;;0.10;0.10;;;;;;;22.08;71.88;100574.19;10416681;28;20036;-64
2021/07/06 11:58:27;;;;;;;0.10;0.10;;;;;;;22.06;72.51;100587.97;10418052;28;20384;-64
2021/07/06 12:03:30;;;;;;;0.07;0.07;;;;;;;22.10;71.98;100650.69;10427556;22;20110;-62
2021/07/06 12:08:33;;;;;;;0.10;0.10;;;;;;;22.17;71.24;100620.75;10391616;28;20049;-61
2021/07/06 12:13:40;;;;;;;0.00;0.00;;;;;;;22.19;70.16;100595.03;10390511;28;20030;-62
2021/07/06 12:18:50;;;;;;;0.10;0.10;;;;;;;22.10;69.57;100608.13;10396253;28;20026;-62
2021/07/06 12:23:53;;;;;;;0.08;0.08;;;;;;;22.02;70.47;100616.66;10384119;28;20021;-63
2021/07/06 12:28:53;;;;;;;0.10;0.10;;;;;;;21.92;71.36;100624.56;10379735;28;20479;-62
2021/07/06 12:33:58;;;;;;;0.10;0.10;;;;;;;21.85;69.69;100654.53;10408753;28;20104;-62
2021/07/06 12:39:22;;;;;;;0.05;0.05;;;;;;;21.84;70.91;100663.72;10410287;28;20499;-62
2021/07/06 12:44:57;;;;;;;0.10;0.10;;;;;;;21.88;69.29;100659.47;10392030;28;20025;-63
2021/07/06 12:49:59;;;;;;;0.10;0.10;;;;;;;21.99;70.72;100660.53;10373364;28;20045;-62
2021/07/06 12:55:19;;;;;;;0.10;0.10;;;;;;;22.10;68.70;100675.94;10387100;28;20056;-64
2021/07/06 13:00:24;;;;;;;0.10;0.10;;;;;;;22.10;68.71;100675.94;10406070;28;20487;-64
2021/07/06 13:05:27;;;;;;;0.05;0.05;;;;;;;22.08;69.01;100671.84;10398805;28;20021;-64
2021/07/06 13:10:31;;;;;;;0.00;0.00;;;;;;;21.96;68.39;100669.09;10408647;28;20428;-64
2021/07/06 13:15:45;;;;;;;0.10;0.10;;;;;;;22.26;70.47;100682.53;10397445;28;20164;-63
2021/07/06 13:20:49;;;;;;;0.03;0.03;;;;;;;23.16;69.25;100672.03;10376098;28;20026;-64
2021/07/06 13:25:50;;;;;;;0.00;0.00;;;;;;;23.66;67.81;100665.72;10383974;28;20097;-62
2021/07/06 13:30:53;;;;;;;0.10;0.10;;;;;;;23.88;63.49;100666.63;10389593;28;20094;-62
2021/07/06 13:35:56;;;;;;;0.10;0.10;;;;;;;23.52;63.36;100681.56;10382085;28;20031;-62
2021/07/06 13:41:00;;;;;;;0.10;0.10;;;;;;;23.53;66.02;100687.81;10377893;28;20022;-63
2021/07/06 13:46:02;;;;;;;0.00;0.00;;;;;;;23.39;64.96;100687.34;10376057;28;20094;-63
2021/07/06 13:51:02;;;;;;;0.03;0.03;;;;;;;23.07;65.70;100727.81;10372601;28;20026;-63
2021/07/06 13:56:04;;;;;;;0.10;0.10;;;;;;;23.04;66.76;100721.81;10374437;28;20028;-63
2021/07/06 14:01:04;;;;;;;0.05;0.05;;;;;;;23.10;64.94;100727.34;10409799;28;20116;-63
2021/07/06 14:06:04;;;;;;;0.00;0.00;;;;;;;23.46;67.17;100707.81;10410267;28;20026;-63
2021/07/06 14:11:05;;;;;;;0.10;0.10;;;;;;;23.86;63.96;100692.44;10402490;28;20136;-63
2021/07/06 14:16:05;;;;;;;0.10;0.10;;;;;;;23.75;63.21;100718.63;10416427;28;20023;-63
2021/07/06 14:21:05;;;;;;;0.10;0.10;;;;;;;23.88;64.74;100715.59;10371179;28;20484;-64
2021/07/06 14:26:06;;;;;;;0.05;0.05;;;;;;;24.28;62.00;100710.94;10398999;28;20061;-64
2021/07/06 14:31:06;;;;;;;0.10;0.10;;;;;;;24.46;61.83;100735.13;10401925;28;20036;-64
2021/07/06 14:36:09;;;;;;;0.10;0.10;;;;;;;24.40;62.30;100717.91;10403771;28;20496;-63
2021/07/06 14:41:09;;;;;;;;;;;;;;;24.59;62.14;100721.13;10400298;28;20025;-63
2021/07/06 14:46:10;;;;;;;0.10;0.10;;;;;;;24.62;60.86;100719.81;10393772;28;19909;-64
2021/07/06 14:51:11;;;;;;;0.10;0.10;;;;;;;24.58;60.60;100718.66;10380561;28;20024;-61
2021/07/06 14:56:11;;;;;;;0.10;0.10;;;;;;;24.52;60.46;100723.25;10374363;28;20029;-63
2021/07/06 15:01:11;;;;;;;0.00;0.00;;;;;;;24.58;60.62;100716.78;10406257;28;20488;-66
2021/07/06 15:06:12;;;;;;;0.10;0.10;;;;;;;24.73;60.69;100697.06;10394690;28;20067;-65
2021/07/06 15:11:12;;;;;;;0.10;0.10;;;;;;;25.21;60.48;100689.91;10402118;28;20362;-63
2021/07/06 15:16:13;;;;;;;0.10;0.10;;;;;;;25.37;58.61;100701.75;10383368;28;20392;-64
2021/07/06 15:21:14;;;;;;;0.10;0.10;;;;;;;25.20;59.59;100701.91;10382243;28;20022;-64
2021/07/06 15:26:14;;;;;;;0.10;0.10;;;;;;;25.02;59.58;100694.91;10381300;28;20029;-63
2021/07/06 15:31:14;;;;;;;0.10;0.10;;;;;;;25.12;58.60;100680.53;10386044;28;20025;-63
2021/07/06 15:36:15;;;;;;;0.10;0.10;;;;;;;25.25;58.88;100691.03;10403009;28;20021;-64
2021/07/06 15:41:15;;;;;;;0.00;0.00;;;;;;;24.80;56.54;100685.94;10384831;28;20018;-64
2021/07/06 15:46:15;;;;;;;0.10;0.10;;;;;;;24.53;58.43;100699.56;10395668;28;20030;-64
2021/07/06 15:51:15;;;;;;;0.10;0.10;;;;;;;24.63;58.91;100688.78;10404688;28;20025;-64
2021/07/06 15:56:16;;;;;;;0.10;0.10;;;;;;;24.85;58.88;100711.34;10393507;28;20021;-65
2021/07/06 16:01:16;;;;;;;0.00;0.00;;;;;;;24.74;57.42;100715.03;10387450;28;20025;-64
2021/07/06 16:06:16;;;;;;;0.00;0.00;;;;;;;24.55;58.58;100713.72;10385937;28;20091;-63
2021/07/06 16:11:17;;;;;;;0.10;0.10;;;;;;;24.29;59.01;100716.13;10376310;28;20033;-63
2021/07/06 16:16:17;;;;;;;0.00;0.00;;;;;;;23.95;60.12;100724.38;10399786;28;20032;-63
2021/07/06 16:21:18;;;;;;;0.10;0.10;;;;;;;23.63;60.43;100735.03;10384195;28;20079;-64
2021/07/06 16:26:18;;;;;;;0.10;0.10;;;;;;;23.68;61.73;100734.28;10368196;28;20030;-64
2021/07/06 16:31:19;;;;;;;0.00;0.00;;;;;;;23.87;61.87;100727.50;10379203;28;20049;-63
2021/07/06 16:36:20;;;;;;;0.10;0.10;;;;;;;23.86;56.36;100723.16;10382397;28;20452;-63
2021/07/06 16:41:21;;;;;;;0.08;0.08;;;;;;;23.72;54.37;100724.56;10400409;28;20025;-63
2021/07/06 16:46:22;;;;;;;0.10;0.10;;;;;;;23.57;56.75;100727.03;10399090;28;20432;-63
2021/07/06 18:00:45;;;;;;;0.10;0.10;;;;;;;22.52;63.80;100792.44;10367158;28;20361;-63
2021/07/06 18:05:46;;;;;;;0.00;0.00;;;;;;;22.42;63.67;100794.94;10392325;23;20074;-65
2021/07/06 18:10:48;;;;;;;0.10;0.10;;;;;;;22.30;62.98;100808.50;10455601;28;20053;-62
2021/07/06 18:15:49;;;;;;;0.00;0.00;;;;;;;22.14;64.16;100809.22;10451403;28;20027;-62
2021/07/06 18:20:51;;;;;;;0.00;0.00;;;;;;;21.90;65.09;100822.78;10451075;28;20020;-62
2021/07/06 18:25:53;;;;;;;0.00;0.00;;;;;;;21.77;65.81;100822.16;10453824;28;20021;-62
2021/07/06 18:30:54;;;;;;;0.10;0.10;;;;;;;21.59;66.34;100829.31;10464105;28;20221;-62
2021/07/06 18:35:54;;;;;;;0.10;0.10;;;;;;;21.51;66.83;100845.06;10456309;28;20021;-62
2021/07/06 18:40:55;;;;;;;0.10;0.10;;;;;;;21.40;67.17;100852.91;10490897;28;20482;-64
2021/07/06 18:45:55;;;;;;;0.10;0.10;;;;;;;21.33;66.40;100856.75;10491438;28;20031;-62
2021/07/06 18:50:55;;;;;;;0.00;0.00;;;;;;;21.23;65.56;100874.38;10478681;28;20029;-64
2021/07/06 18:55:56;;;;;;;0.10;0.10;;;;;;;21.16;63.60;100873.63;10449580;28;20081;-64
2021/07/06 19:00:56;;;;;;;0.10;0.10;;;;;;;21.09;62.52;100880.19;10452552;28;20029;-64
2021/07/06 19:05:58;;;;;;;0.10;0.10;;;;;;;21.02;60.85;100883.78;10452742;28;20033;-64
2021/07/06 19:10:59;;;;;;;0.08;0.08;;;;;;;20.97;61.71;100890.94;10473075;28;20021;-64
2021/07/06 19:16:00;;;;;;;0.10;0.10;;;;;;;20.92;61.87;100909.78;10449922;28;20387;-64
2021/07/06 19:21:00;;;;;;;0.00;0.00;;;;;;;20.86;60.86;100900.66;10448970;28;20040;-64
2021/07/06 19:31:23;;;;;;;0.10;0.10;;;;;;;20.79;61.46;100930.50;10451669;28;20052;-63
2021/07/06 19:36:23;;;;;;;0.00;0.00;;;;;;;20.68;60.90;100933.13;10455019;28;20020;-64
2021/07/06 19:41:24;;;;;;;0.10;0.10;;;;;;;20.57;62.71;100934.69;10489310;28;20090;-63
2021/07/06 19:46:25;;;;;;;0.10;0.10;;;;;;;20.48;62.09;100944.94;10490316;28;20021;-64
2021/07/06 19:51:25;;;;;;;0.10;0.10;;;;;;;20.41;62.17;100948.75;10489408;28;20031;-64
2021/07/06 19:56:26;;;;;;;0.10;0.10;;;;;;;20.31;63.02;100944.66;10490322;28;20364;-63
2021/07/06 20:01:27;;;;;;;0.10;0.10;;;;;;;20.20;64.52;100961.59;10489382;28;20477;-63
2021/07/06 20:06:27;;;;;;;0.10;0.10;;;;;;;20.06;64.52;100974.38;10476611;28;20021;-64
2021/07/06 20:11:27;;;;;;;0.10;0.10;;;;;;;19.93;65.15;100981.75;10497049;28;20031;-63
2021/07/06 20:16:29;;;;;;;0.00;0.00;;;;;;;19.79;65.14;100984.53;10489750;28;20479;-63
2021/07/06 20:21:29;;;;;;;0.00;0.00;;;;;;;19.66;66.69;100998.09;10490923;28;20267;-63
2021/07/06 20:26:30;;;;;;;0.10;0.10;;;;;;;19.52;65.76;100997.31;10498636;28;20463;-63
2021/07/06 20:31:30;;;;;;;0.10;0.10;;;;;;;19.49;62.65;101002.28;10496532;28;20035;-63
2021/07/06 20:36:31;;;;;;;0.10;0.10;;;;;;;19.48;62.77;101008.75;10498594;28;20028;-63
2021/07/06 20:41:31;;;;;;;0.10;0.10;;;;;;;19.36;62.81;101017.50;10496865;28;20055;-63
2021/07/06 20:46:32;;;;;;;0.10;0.10;;;;;;;19.27;62.54;101028.75;10498611;28;20039;-63
2021/07/06 20:51:32;;;;;;;0.10;0.10;;;;;;;19.15;63.78;101023.19;10497648;28;20040;-63
2021/07/06 20:56:32;;;;;;;0.10;0.10;;;;;;;19.02;63.77;101032.13;10497619;28;20032;-63
2021/07/06 21:01:33;;;;;;;0.10;0.10;;;;;;;18.94;63.14;101056.66;10496788;28;20266;-63
2021/07/06 21:06:33;;;;;;;0.10;0.10;;;;;;;18.88;63.05;101058.31;10496182;28;20038;-63
2021/07/06 21:11:34;;;;;;;0.10;0.10;;;;;;;18.82;62.52;101080.75;10484055;28;20021;-64
2021/07/06 21:16:34;;;;;;;0.10;0.10;;;;;;;18.75;63.40;101083.41;10494741;28;20025;-63
2021/07/06 21:21:35;;;;;;;0.10;0.10;;;;;;;18.65;62.66;101101.03;10476777;28;20025;-62
2021/07/06 21:26:35;;;;;;;0.10;0.10;;;;;;;18.54;62.96;101105.97;10494984;28;20023;-63
2021/07/06 21:31:35;;;;;;;0.00;0.00;;;;;;;18.44;63.82;101121.75;10493273;28;20021;-63
2021/07/06 21:36:37;;;;;;;0.10;0.10;;;;;;;18.31;64.04;101124.41;10489259;28;20074;-64
2021/07/06 21:41:37;;;;;;;0.10;0.10;;;;;;;18.21;64.25;101129.31;10493715;28;20023;-63
2021/07/06 21:46:37;;;;;;;0.10;0.10;;;;;;;18.08;65.41;101128.25;10485390;28;20028;-63
2021/07/06 21:51:38;;;;;;;0.10;0.10;;;;;;;17.97;65.88;101144.16;10452345;28;20537;-63
2021/07/06 21:56:38;;;;;;;0.10;0.10;;;;;;;17.85;66.85;101168.16;10451713;28;20024;-63
2021/07/06 22:01:39;;;;;;;0.10;0.10;;;;;;;17.74;67.99;101172.19;10475148;28;20081;-63
2021/07/06 22:06:39;;;;;;;0.10;0.10;;;;;;;17.64;68.55;101187.88;10493030;28;20084;-63
2021/07/06 22:11:39;;;;;;;0.10;0.10;;;;;;;17.61;67.32;101210.66;10474662;28;20761;-63
2021/07/06 22:16:42;;;;;;;0.10;0.10;;;;;;;17.60;68.34;101197.41;10451943;28;20427;-63
2021/07/06 22:21:42;;;;;;;0.05;0.05;;;;;;;17.53;67.84;101226.97;10450795;28;20023;-63
2021/07/06 22:26:42;;;;;;;0.10;0.10;;;;;;;17.42;68.70;101222.97;10451240;28;20021;-63
2021/07/06 22:31:43;;;;;;;0.10;0.10;;;;;;;17.32;68.81;101224.31;10473648;28;20024;-63
2021/07/06 22:36:43;;;;;;;0.10;0.10;;;;;;;17.20;69.05;101229.38;10491896;28;20085;-63
2021/07/06 22:41:43;;;;;;;0.10;0.10;;;;;;;17.10;69.10;101232.38;10484764;28;20036;-63
2021/07/06 22:46:44;;;;;;;0.10;0.10;;;;;;;16.98;69.58;101237.44;10487622;28;20158;-63
2021/07/06 22:51:44;;;;;;;0.10;0.10;;;;;;;16.88;69.51;101242.31;10491030;28;20279;-63
2021/07/06 22:56:44;;;;;;;0.10;0.10;;;;;;;16.80;69.50;101230.84;10491637;28;20107;-63
2021/07/06 23:01:45;;;;;;;0.10;0.10;;;;;;;16.73;69.40;101257.63;10483224;28;20025;-63
2021/07/06 23:06:45;;;;;;;0.13;0.13;;;;;;;16.68;69.65;101265.44;10450086;28;20029;-63
2021/07/06 23:11:45;;;;;;;0.10;0.10;;;;;;;16.63;69.51;101274.03;10448966;28;20291;-63
2021/07/06 23:16:46;;;;;;;0.10;0.10;;;;;;;16.55;69.28;101274.19;10459975;28;20028;-63
2021/07/06 23:21:46;;;;;;;0.10;0.10;;;;;;;16.48;68.23;101274.06;10490199;28;20100;-63
2021/07/06 23:26:47;;;;;;;0.10;0.10;;;;;;;16.38;69.23;101267.34;10490480;28;20021;-63
2021/07/06 23:31:47;;;;;;;0.10;0.10;;;;;;;16.30;69.33;101295.13;10489596;28;20032;-63
2021/07/06 23:36:48;;;;;;;0.10;0.10;;;;;;;16.26;69.46;101288.44;10490382;28;20520;-63
2021/07/06 23:41:48;;;;;;;0.10;0.10;;;;;;;16.20;69.83;101297.25;10494085;28;20032;-63
2021/07/06 23:46:48;;;;;;;0.10;0.10;;;;;;;16.09;69.63;101290.50;10493574;28;20021;-63
2021/07/06 23:51:49;;;;;;;0.10;0.10;;;;;;;15.99;70.54;101304.19;10460347;28;20036;-63
2021/07/06 23:56:49;;;;;;;0.10;0.10;;;;;;;15.90;71.06;101328.63;10457309;28;20025;-63
